Time;durP1;ratioP1;P1;durP2;ratioP2;P2;SDS_P1;SDS_P2;PMS_P1;PMS_P2;Temp;Humidity;BMP_temperature;BMP_pressure;BME280_temperature;BME280_humidity;BME280_pressure;Samples;Min_cycle;Max_cycle;Signal;HPM_P1;HPM_P2
2022/05/24 00:00:57;;;;;;;7.75;6.72;;;13.50;99.90;;;;;;4951587;28;20042;-58
2022/05/24 00:03:22;;;;;;;10.70;7.47;;;13.50;99.90;;;;;;4943761;28;20038;-58
2022/05/24 00:05:48;;;;;;;11.27;6.53;;;13.50;99.90;;;;;;4969681;28;20043;-56
2022/05/24 00:08:14;;;;;;;9.45;6.32;;;13.50;99.90;;;;;;4963849;28;20044;-60
2022/05/24 00:10:40;;;;;;;8.82;6.50;;;13.50;99.90;;;;;;4972438;28;20077;-59
2022/05/24 00:13:08;;;;;;;8.48;5.60;;;13.50;99.90;;;;;;4970869;28;20058;-59
2022/05/24 00:15:34;;;;;;;9.13;5.57;;;13.40;99.90;;;;;;4958545;28;20034;-57
2022/05/24 00:18:01;;;;;;;7.75;4.88;;;13.40;99.90;;;;;;4948358;28;20038;-60
2022/05/24 00:20:30;;;;;;;10.32;5.13;;;13.40;99.90;;;;;;4956742;28;20066;-61
2022/05/24 00:22:57;;;;;;;6.88;5.35;;;13.40;99.90;;;;;;4963093;28;20169;-56
2022/05/24 00:25:22;;;;;;;8.63;5.30;;;13.40;99.90;;;;;;4978543;28;20034;-57
2022/05/24 00:27:48;;;;;;;12.57;5.72;;;13.30;99.90;;;;;;4944297;28;20039;-57
2022/05/24 00:30:16;;;;;;;7.80;5.10;;;13.40;99.90;;;;;;4937038;28;20050;-55
2022/05/24 00:32:42;;;;;;;7.78;4.65;;;13.30;99.90;;;;;;4948526;28;20050;-60
2022/05/24 00:35:09;;;;;;;6.68;4.40;;;13.30;99.90;;;;;;4968652;28;20042;-58
2022/05/24 00:37:38;;;;;;;6.20;4.38;;;13.30;99.90;;;;;;4963407;28;20054;-59
2022/05/24 00:40:05;;;;;;;6.60;5.32;;;13.30;99.90;;;;;;4960368;28;20126;-57
2022/05/24 00:42:32;;;;;;;8.18;5.32;;;13.30;99.90;;;;;;4977403;28;20450;-58
2022/05/24 00:45:05;;;;;;;7.07;4.57;;;13.30;99.90;;;;;;4963903;28;20390;-58
2022/05/24 00:47:54;;;;;;;6.80;4.63;;;13.20;99.90;;;;;;4958253;28;20035;-61
2022/05/24 00:50:30;;;;;;;7.93;4.63;;;13.30;99.90;;;;;;4970360;28;20092;-58
2022/05/24 00:53:08;;;;;;;6.43;4.70;;;13.20;99.90;;;;;;4970420;28;20038;-58
2022/05/24 00:55:49;;;;;;;8.13;4.85;;;13.20;99.90;;;;;;4952051;28;20097;-61
2022/05/24 00:58:31;;;;;;;10.02;5.90;;;13.20;99.90;;;;;;4934222;28;20467;-58
2022/05/24 01:01:01;;;;;;;9.43;6.20;;;13.30;99.90;;;;;;4949875;28;20047;-58
2022/05/24 01:03:27;;;;;;;7.82;6.78;;;13.30;99.90;;;;;;4969696;28;20438;-58
2022/05/24 01:05:52;;;;;;;15.73;8.00;;;13.30;99.90;;;;;;4933694;28;20053;-57
2022/05/24 01:08:18;;;;;;;11.02;6.57;;;13.30;99.90;;;;;;4975133;28;20040;-59
2022/05/24 01:10:51;;;;;;;11.27;7.57;;;13.30;99.90;;;;;;4962279;28;20272;-59
2022/05/24 01:13:22;;;;;;;11.07;7.63;;;13.30;99.90;;;;;;4959022;28;20038;-56
2022/05/24 01:15:48;;;;;;;9.15;7.63;;;13.30;99.90;;;;;;4957589;28;20334;-59
2022/05/24 01:18:14;;;;;;;10.95;7.68;;;13.40;99.90;;;;;;4943524;28;20065;-56
2022/05/24 01:20:46;;;;;;;10.80;7.38;;;13.40;99.90;;;;;;4934988;28;20405;-56
2022/05/24 01:23:37;;;;;;;10.48;7.78;;;13.40;99.90;;;;;;4953292;28;20469;-58
2022/05/24 01:26:35;;;;;;;8.05;6.00;;;13.40;99.90;;;;;;4959439;28;20057;-58
2022/05/24 01:29:05;;;;;;;9.90;7.05;;;13.40;99.90;;;;;;4972239;28;20039;-57
2022/05/24 01:36:09;;;;;;;9.50;7.47;;;13.40;99.90;;;;;;4960813;28;20053;-58
2022/05/24 01:37:03;;;;;;;12.05;8.50;;;13.40;99.90;;;;;;4972134;28;20083;-55
2022/05/24 01:39:29;;;;;;;15.75;8.93;;;13.40;99.90;;;;;;4956310;28;20051;-57
2022/05/24 01:41:55;;;;;;;10.40;8.45;;;13.50;99.90;;;;;;4970071;28;20078;-56
2022/05/24 01:44:50;;;;;;;12.13;8.93;;;13.50;99.90;;;;;;4965332;28;20181;-57
2022/05/24 01:47:19;;;;;;;11.75;8.63;;;13.50;99.90;;;;;;4981333;28;20274;-57
2022/05/24 01:49:50;;;;;;;11.32;9.27;;;13.50;99.90;;;;;;4975720;28;20104;-57
2022/05/24 01:52:34;;;;;;;14.82;10.02;;;13.40;99.90;;;;;;4962066;28;20160;-56
2022/05/24 01:55:34;;;;;;;11.43;8.43;;;13.50;99.90;;;;;;4961400;28;20520;-56
2022/05/24 01:58:04;;;;;;;13.98;9.63;;;13.60;99.90;;;;;;4953602;28;20066;-58
2022/05/24 02:00:30;;;;;;;14.57;9.95;;;13.50;99.90;;;;;;4955458;28;21255;-62
2022/05/24 02:02:56;;;;;;;14.23;10.40;;;13.60;99.90;;;;;;4959084;28;20038;-58
2022/05/24 02:05:31;;;;;;;14.32;11.43;;;13.60;99.90;;;;;;4957534;28;20065;-56
2022/05/24 02:07:57;;;;;;;17.20;12.82;;;13.60;99.90;;;;;;4952915;28;20309;-59
2022/05/24 02:10:24;;;;;;;20.33;14.63;;;13.60;99.90;;;;;;4972495;28;20113;-58
2022/05/24 02:12:54;;;;;;;16.88;13.75;;;13.60;99.90;;;;;;4952531;28;20445;-57
2022/05/24 02:15:26;;;;;;;25.95;18.00;;;13.70;99.90;;;;;;4970091;28;20046;-58
2022/05/24 02:18:12;;;;;;;25.10;18.30;;;13.70;99.90;;;;;;4943436;28;20098;-60
2022/05/24 02:20:40;;;;;;;26.50;17.92;;;13.70;99.90;;;;;;4946251;28;20035;-57
2022/05/24 02:23:08;;;;;;;28.00;20.70;;;13.70;99.90;;;;;;4972608;28;20175;-59
2022/05/24 02:25:43;;;;;;;30.92;20.52;;;13.70;99.90;;;;;;4975309;28;20125;-55
2022/05/24 02:28:10;;;;;;;29.25;20.55;;;13.70;99.90;;;;;;4954215;28;20395;-58
2022/05/24 02:30:50;;;;;;;33.30;22.35;;;13.80;99.90;;;;;;4944319;28;20053;-58
2022/05/24 02:33:16;;;;;;;30.45;21.33;;;13.70;99.90;;;;;;4953668;28;20046;-59
2022/05/24 02:35:42;;;;;;;29.88;20.58;;;13.80;99.90;;;;;;4952501;28;20043;-57
2022/05/24 02:38:08;;;;;;;26.77;20.20;;;13.80;99.90;;;;;;4958628;28;20053;-58
2022/05/24 02:43:18;;;;;;;;;;;13.90;99.90;;;;;;4959625;28;20111;-60
2022/05/24 02:45:44;;;;;;;25.55;19.30;;;13.80;99.90;;;;;;4956162;28;19917;-60
2022/05/24 02:48:10;;;;;;;30.08;19.83;;;13.80;99.90;;;;;;4961487;28;20097;-59
2022/05/24 02:50:35;;;;;;;25.27;18.73;;;13.90;99.90;;;;;;4959269;28;20407;-59
2022/05/24 02:53:01;;;;;;;23.45;18.83;;;13.90;99.90;;;;;;4960664;28;20046;-60
2022/05/24 02:55:27;;;;;;;26.23;19.33;;;13.90;99.90;;;;;;4959551;28;20080;-58
2022/05/24 02:57:52;;;;;;;23.17;18.08;;;13.90;99.90;;;;;;4961282;28;20038;-60
2022/05/24 03:00:22;;;;;;;24.13;18.38;;;13.90;99.90;;;;;;4954891;28;20046;-59
2022/05/24 03:02:49;;;;;;;30.45;20.70;;;13.90;99.90;;;;;;4980485;28;20100;-57
2022/05/24 03:05:15;;;;;;;25.17;19.92;;;13.90;99.90;;;;;;4973446;28;20039;-60
2022/05/24 03:10:27;;;;;;;24.58;18.13;;;14.00;99.90;;;;;;4957385;28;20058;-60
2022/05/24 03:15:39;;;;;;;;;;;14.00;99.90;;;;;;4979452;28;20125;-59
2022/05/24 03:18:06;;;;;;;25.48;19.80;;;13.90;99.90;;;;;;4939391;28;19918;-56
2022/05/24 03:20:31;;;;;;;27.52;20.08;;;13.90;99.90;;;;;;4962627;28;20471;-59
2022/05/24 03:22:57;;;;;;;30.70;21.77;;;13.90;99.90;;;;;;4952714;28;20077;-59
2022/05/24 03:25:23;;;;;;;29.27;20.77;;;13.90;99.90;;;;;;4961520;28;20041;-58
2022/05/24 03:27:49;;;;;;;27.08;18.75;;;13.90;99.90;;;;;;4957287;28;20067;-59
2022/05/24 03:30:15;;;;;;;24.45;19.13;;;13.90;99.90;;;;;;4954434;28;20074;-58
2022/05/24 03:32:41;;;;;;;22.67;17.75;;;13.90;99.90;;;;;;4977578;28;20324;-57
2022/05/24 03:35:11;;;;;;;24.50;17.77;;;13.90;99.90;;;;;;4950287;28;20058;-60
2022/05/24 03:37:38;;;;;;;20.27;16.98;;;13.90;99.90;;;;;;4944380;28;20077;-55
2022/05/24 03:40:05;;;;;;;20.15;15.57;;;13.80;99.90;;;;;;4959639;28;20042;-59
2022/05/24 03:42:30;;;;;;;18.90;14.05;;;13.80;99.90;;;;;;4942277;28;20118;-58
2022/05/24 03:44:56;;;;;;;20.50;14.05;;;13.80;99.90;;;;;;4942955;28;20126;-58
2022/05/24 03:47:22;;;;;;;17.10;13.38;;;13.80;99.90;;;;;;4947062;28;20413;-59
2022/05/24 03:49:47;;;;;;;17.27;12.88;;;13.80;99.90;;;;;;4946859;28;20056;-58
2022/05/24 03:52:13;;;;;;;17.08;11.90;;;13.80;99.90;;;;;;4958569;28;20046;-59
2022/05/24 03:54:39;;;;;;;17.33;10.90;;;13.80;99.90;;;;;;4967059;28;20170;-55
2022/05/24 03:59:49;;;;;;;15.98;10.20;;;13.70;99.90;;;;;;4954691;28;20050;-58
2022/05/24 04:02:15;;;;;;;13.88;9.15;;;13.70;99.90;;;;;;4954143;28;20599;-57
2022/05/24 04:04:41;;;;;;;13.10;8.60;;;13.70;99.90;;;;;;4968313;28;20492;-58
2022/05/24 04:07:07;;;;;;;12.20;8.20;;;13.70;99.90;;;;;;4976651;28;20035;-59
2022/05/24 04:09:33;;;;;;;10.23;6.90;;;13.60;99.90;;;;;;4952130;28;20045;-61
2022/05/24 04:11:59;;;;;;;9.90;7.25;;;13.60;99.90;;;;;;4952909;28;20458;-57
2022/05/24 04:14:27;;;;;;;16.50;8.27;;;13.60;99.90;;;;;;4978943;28;20482;-57
2022/05/24 04:16:53;;;;;;;13.35;7.35;;;13.60;99.90;;;;;;4958068;28;20042;-57
2022/05/24 04:19:19;;;;;;;12.60;6.68;;;13.60;99.90;;;;;;4985749;23;20058;-58
2022/05/24 04:21:44;;;;;;;11.93;7.90;;;13.60;99.90;;;;;;4945805;28;20516;-57
2022/05/24 04:24:10;;;;;;;11.65;6.97;;;13.60;99.90;;;;;;4924061;28;20053;-54
2022/05/24 04:26:36;;;;;;;12.13;7.45;;;13.60;99.90;;;;;;4939984;29;20043;-54
2022/05/24 04:29:01;;;;;;;10.30;7.10;;;13.60;99.90;;;;;;4925127;28;20043;-57
2022/05/24 04:31:27;;;;;;;13.07;6.93;;;13.60;99.90;;;;;;4927248;28;20047;-54
2022/05/24 04:33:53;;;;;;;11.95;6.82;;;13.60;99.90;;;;;;4909106;29;20035;-56
2022/05/24 04:36:18;;;;;;;13.02;7.38;;;13.60;99.90;;;;;;4920817;29;20070;-57
2022/05/24 04:38:44;;;;;;;10.88;7.10;;;13.60;99.90;;;;;;4935973;28;20550;-59
2022/05/24 04:43:54;;;;;;;11.63;8.32;;;13.60;99.90;;;;;;4925782;29;20403;-54
2022/05/24 04:46:20;;;;;;;10.20;7.05;;;13.60;99.90;;;;;;4914711;29;20046;-57
2022/05/24 04:48:45;;;;;;;13.50;8.15;;;13.60;99.90;;;;;;4901775;29;20473;-56
2022/05/24 04:51:11;;;;;;;9.35;6.47;;;13.60;99.90;;;;;;4939362;28;20047;-56
2022/05/24 04:53:37;;;;;;;11.25;7.28;;;13.60;99.90;;;;;;4920348;28;20106;-56
2022/05/24 04:56:03;;;;;;;12.50;8.02;;;13.60;99.90;;;;;;4910156;29;20047;-55
2022/05/24 04:58:29;;;;;;;15.95;8.20;;;13.60;99.90;;;;;;4944974;28;20062;-52
2022/05/24 05:00:56;;;;;;;14.05;9.18;;;13.70;99.90;;;;;;4918771;29;20031;-55
2022/05/24 05:03:22;;;;;;;11.68;7.70;;;13.70;99.90;;;;;;4914455;29;20045;-56
2022/05/24 05:05:50;;;;;;;13.00;7.95;;;13.70;99.90;;;;;;4947058;28;20521;-56
2022/05/24 05:08:17;;;;;;;12.70;7.72;;;13.70;99.90;;;;;;4927771;29;20119;-53
2022/05/24 05:10:43;;;;;;;11.10;8.35;;;13.70;99.90;;;;;;4945266;29;20142;-53
2022/05/24 05:13:09;;;;;;;12.70;9.20;;;13.70;99.90;;;;;;4940581;28;20118;-55
2022/05/24 05:15:37;;;;;;;14.15;9.20;;;13.70;99.90;;;;;;4927296;28;20035;-55
2022/05/24 05:18:13;;;;;;;14.70;9.32;;;13.70;99.90;;;;;;4908063;29;20130;-55
2022/05/24 05:20:41;;;;;;;13.38;9.57;;;13.80;99.90;;;;;;4921299;28;20042;-52
2022/05/24 05:23:09;;;;;;;15.90;10.30;;;13.80;99.90;;;;;;4914498;29;20082;-55
2022/05/24 05:25:35;;;;;;;17.92;10.68;;;13.80;99.90;;;;;;4943027;28;20430;-53
2022/05/24 05:28:02;;;;;;;19.27;10.88;;;13.80;99.90;;;;;;4914418;29;20277;-54
2022/05/24 05:33:14;;;;;;;13.65;11.05;;;13.80;99.90;;;;;;4942224;28;20402;-54
2022/05/24 05:35:42;;;;;;;16.17;12.32;;;13.80;99.90;;;;;;4926974;29;20036;-55
2022/05/24 05:38:08;;;;;;;17.33;12.25;;;13.80;99.90;;;;;;4943455;29;21055;-56
2022/05/24 05:40:33;;;;;;;15.77;10.63;;;13.90;99.90;;;;;;4924328;28;20138;-52
2022/05/24 05:42:59;;;;;;;15.27;12.38;;;13.90;99.90;;;;;;4929911;29;20126;-54
2022/05/24 05:45:25;;;;;;;17.25;11.18;;;13.90;99.90;;;;;;4936447;28;20058;-55
2022/05/24 05:47:52;;;;;;;20.23;14.35;;;14.00;99.90;;;;;;4907027;29;20042;-55
2022/05/24 05:50:20;;;;;;;21.52;13.85;;;14.00;99.90;;;;;;4951292;28;20314;-55
2022/05/24 05:52:46;;;;;;;15.85;12.40;;;14.00;99.90;;;;;;4918335;29;20058;-54
2022/05/24 05:55:12;;;;;;;20.90;13.23;;;14.00;99.90;;;;;;4930314;29;20090;-56
2022/05/24 05:57:39;;;;;;;17.90;13.50;;;14.10;99.90;;;;;;4926210;28;20054;-54
2022/05/24 06:00:08;;;;;;;16.20;11.25;;;14.10;99.90;;;;;;4930806;29;20035;-56
2022/05/24 06:02:35;;;;;;;20.05;12.95;;;14.10;99.90;;;;;;4903314;29;20043;-53
2022/05/24 06:05:02;;;;;;;21.90;13.27;;;14.10;99.90;;;;;;4930781;29;20041;-51
2022/05/24 06:07:27;;;;;;;19.95;11.95;;;14.10;99.90;;;;;;4960153;28;20143;-55
2022/05/24 06:09:53;;;;;;;19.58;9.48;;;14.10;99.90;;;;;;4937835;29;20039;-53
2022/05/24 06:12:19;;;;;;;15.25;8.70;;;14.10;99.90;;;;;;4918183;29;20040;-56
2022/05/24 06:14:45;;;;;;;19.40;9.70;;;14.10;99.90;;;;;;4918501;28;20051;-55
2022/05/24 06:17:11;;;;;;;17.98;8.52;;;14.10;99.90;;;;;;4914984;28;20043;-54
2022/05/24 06:19:37;;;;;;;15.80;7.55;;;14.10;99.90;;;;;;4921189;29;20046;-56
2022/05/24 06:22:04;;;;;;;14.45;8.65;;;14.20;99.90;;;;;;4932877;29;20122;-52
2022/05/24 06:24:29;;;;;;;10.77;8.18;;;14.20;99.90;;;;;;4911570;29;20047;-54
2022/05/24 06:26:56;;;;;;;14.18;8.15;;;14.30;99.90;;;;;;4916878;29;20105;-52
2022/05/24 06:29:23;;;;;;;10.80;6.13;;;14.40;99.90;;;;;;4909272;29;20039;-57
2022/05/24 06:31:49;;;;;;;10.50;5.30;;;14.40;99.90;;;;;;4917699;28;20524;-56
2022/05/24 06:34:15;;;;;;;9.30;4.40;;;14.40;99.90;;;;;;4934383;28;20043;-56
2022/05/24 06:36:41;;;;;;;5.80;3.67;;;14.40;99.90;;;;;;4920757;29;20043;-56
2022/05/24 06:39:07;;;;;;;7.55;3.70;;;14.30;99.90;;;;;;4944049;28;20557;-56
2022/05/24 06:41:33;;;;;;;5.65;3.05;;;14.30;99.90;;;;;;4924323;29;20134;-57
2022/05/24 06:43:58;;;;;;;5.45;3.75;;;14.30;99.90;;;;;;4930956;29;20074;-57
2022/05/24 06:46:24;;;;;;;6.68;3.22;;;14.20;99.90;;;;;;4927989;28;20058;-56
2022/05/24 06:48:50;;;;;;;6.30;3.40;;;14.30;99.90;;;;;;4913287;29;20107;-56
2022/05/24 06:51:19;;;;;;;7.03;3.42;;;14.30;99.90;;;;;;4918301;29;20043;-55
2022/05/24 06:53:47;;;;;;;6.88;3.92;;;14.30;99.90;;;;;;4919615;29;20039;-56
2022/05/24 06:56:13;;;;;;;8.18;3.95;;;14.30;99.90;;;;;;4908716;28;20140;-55
2022/05/24 06:58:38;;;;;;;6.40;3.45;;;14.30;99.90;;;;;;4935862;28;20605;-57
2022/05/24 07:03:50;;;;;;;10.52;4.78;;;14.30;99.90;;;;;;4922576;29;20051;-55
2022/05/24 07:06:17;;;;;;;7.57;4.20;;;14.30;99.90;;;;;;4914200;28;20066;-55
2022/05/24 07:08:44;;;;;;;6.80;4.25;;;14.40;99.90;;;;;;4932757;28;20082;-56
2022/05/24 07:11:11;;;;;;;12.05;5.40;;;14.30;99.90;;;;;;4908114;29;20589;-56
2022/05/24 07:13:38;;;;;;;10.15;5.22;;;14.40;99.90;;;;;;4928313;28;20084;-54
2022/05/24 07:16:04;;;;;;;10.50;5.85;;;14.40;99.90;;;;;;4915274;28;20106;-55
2022/05/24 07:18:30;;;;;;;9.00;5.82;;;14.40;99.90;;;;;;4915129;29;20292;-56
2022/05/24 07:20:55;;;;;;;10.32;7.35;;;14.40;99.90;;;;;;4913079;29;20115;-56
2022/05/24 07:23:26;;;;;;;11.13;5.95;;;14.40;99.90;;;;;;4901566;29;20061;-56
2022/05/24 07:25:53;;;;;;;11.27;6.25;;;14.40;99.90;;;;;;4913292;29;20039;-56
2022/05/24 07:28:20;;;;;;;9.43;5.32;;;14.50;99.90;;;;;;4923948;28;20059;-57
2022/05/24 07:30:49;;;;;;;10.18;6.18;;;14.60;99.90;;;;;;4924045;28;20533;-57
2022/05/24 07:33:16;;;;;;;10.05;6.43;;;14.60;99.90;;;;;;4950867;28;20415;-57
2022/05/24 07:35:42;;;;;;;8.20;5.82;;;14.60;99.90;;;;;;4913260;29;20086;-57
2022/05/24 07:38:10;;;;;;;13.32;6.63;;;14.70;99.90;;;;;;4931960;29;20078;-57
2022/05/24 07:46:11;;;;;;;10.45;6.05;;;14.80;99.90;;;;;;4911599;28;20047;-57
2022/05/24 07:48:38;;;;;;;8.82;5.20;;;14.80;99.90;;;;;;4926768;28;20290;-56
2022/05/24 07:51:04;;;;;;;9.95;6.65;;;14.90;99.90;;;;;;4941238;29;20610;-57
2022/05/24 07:53:31;;;;;;;8.95;5.65;;;14.90;99.90;;;;;;4910660;29;20166;-56
2022/05/24 07:55:57;;;;;;;7.55;4.95;;;15.00;99.90;;;;;;4927493;28;20511;-57
2022/05/24 07:58:23;;;;;;;10.10;5.57;;;15.00;99.90;;;;;;4930696;28;20499;-57
2022/05/24 08:00:49;;;;;;;9.02;5.40;;;15.10;99.90;;;;;;4911313;29;20067;-57
2022/05/24 08:03:14;;;;;;;10.25;4.93;;;15.10;99.90;;;;;;4899075;28;20066;-56
2022/05/24 08:05:41;;;;;;;11.73;4.95;;;15.00;99.90;;;;;;4934146;28;20134;-57
2022/05/24 08:08:08;;;;;;;8.95;4.50;;;15.00;99.90;;;;;;4903368;29;20051;-57
2022/05/24 08:10:36;;;;;;;11.68;5.55;;;15.00;99.90;;;;;;4939239;28;20498;-56
2022/05/24 08:13:08;;;;;;;7.97;4.28;;;15.10;99.90;;;;;;4910491;28;20450;-57
2022/05/24 08:15:34;;;;;;;7.85;4.60;;;15.10;99.90;;;;;;4920996;29;20047;-57
2022/05/24 08:18:00;;;;;;;10.40;4.82;;;15.00;99.90;;;;;;4915214;28;20055;-54
2022/05/24 08:20:27;;;;;;;6.85;4.38;;;15.00;99.90;;;;;;4932181;28;20093;-57
2022/05/24 08:22:53;;;;;;;9.77;5.07;;;15.00;99.90;;;;;;4921609;28;20048;-56
2022/05/24 08:25:19;;;;;;;9.60;4.80;;;15.00;99.90;;;;;;4928007;28;20042;-56
2022/05/24 08:27:44;;;;;;;7.32;4.47;;;15.00;99.90;;;;;;4921737;28;20035;-54
2022/05/24 08:30:13;;;;;;;6.20;5.05;;;14.90;99.90;;;;;;4908702;28;20048;-57
2022/05/24 08:32:39;;;;;;;9.25;5.07;;;14.90;99.90;;;;;;4916680;29;20055;-56
2022/05/24 08:35:06;;;;;;;9.43;4.90;;;14.80;99.90;;;;;;4914500;29;20046;-57
2022/05/24 08:37:32;;;;;;;9.02;4.68;;;14.60;99.90;;;;;;4918986;28;20479;-57
2022/05/24 08:39:59;;;;;;;7.93;5.15;;;14.50;99.90;;;;;;4928642;28;20034;-56
2022/05/24 08:43:05;;;;;;;13.48;6.15;;;14.50;99.90;;;;;;4908948;28;20514;-56
2022/05/24 08:48:37;;;;;;;8.77;5.28;;;14.20;99.90;;;;;;4908211;29;20051;-56
2022/05/24 08:51:15;;;;;;;;;;;14.00;99.90;;;;;;4923620;28;20337;-56
2022/05/24 08:53:50;;;;;;;10.85;7.40;;;13.90;99.90;;;;;;4915053;29;19925;-56
2022/05/24 08:56:30;;;;;;;9.63;5.50;;;13.80;99.90;;;;;;4941150;28;20078;-56
2022/05/24 08:59:03;;;;;;;7.80;5.95;;;13.80;99.90;;;;;;4935759;28;20075;-56
2022/05/24 09:01:33;;;;;;;9.88;5.88;;;13.80;99.90;;;;;;4924912;29;20051;-56
2022/05/24 09:04:00;;;;;;;6.60;5.25;;;13.80;99.90;;;;;;4939630;29;20044;-56
2022/05/24 09:06:54;;;;;;;7.72;5.22;;;13.90;99.90;;;;;;4919443;29;20162;-56
2022/05/24 09:09:34;;;;;;;9.35;4.95;;;14.00;99.90;;;;;;4940101;29;20427;-56
2022/05/24 09:12:52;;;;;;;7.85;4.60;;;14.00;99.90;;;;;;4913011;29;20118;-56
2022/05/24 09:15:53;;;;;;;15.23;5.00;;;14.10;99.90;;;;;;4942693;29;20119;-56
2022/05/24 09:18:42;;;;;;;8.32;4.30;;;14.20;99.90;;;;;;4947209;29;20047;-57
2022/05/24 09:21:23;;;;;;;7.85;3.95;;;14.30;99.90;;;;;;4942314;29;20048;-56
2022/05/24 09:23:55;;;;;;;6.13;3.50;;;14.30;99.90;;;;;;4938048;29;20046;-56
2022/05/24 09:26:22;;;;;;;8.57;4.45;;;14.40;99.90;;;;;;4930532;29;20122;-56
2022/05/24 09:28:51;;;;;;;6.03;4.57;;;14.60;99.90;;;;;;4922305;29;20510;-54
2022/05/24 09:31:23;;;;;;;8.65;4.15;;;14.70;99.90;;;;;;4942051;28;20043;-56
2022/05/24 09:34:00;;;;;;;9.68;4.90;;;14.90;99.90;;;;;;4930691;29;20046;-56
2022/05/24 09:36:32;;;;;;;7.63;4.95;;;15.10;99.90;;;;;;4933120;29;20130;-57
2022/05/24 09:39:00;;;;;;;6.10;4.22;;;15.20;99.90;;;;;;4929641;29;20051;-56
2022/05/24 09:41:25;;;;;;;5.07;4.00;;;15.40;99.90;;;;;;4917402;29;20051;-56
2022/05/24 09:44:16;;;;;;;8.43;4.72;;;15.50;99.90;;;;;;4942459;29;20042;-57
2022/05/24 09:46:43;;;;;;;7.80;4.55;;;15.60;99.90;;;;;;4924213;28;20071;-58
2022/05/24 09:49:32;;;;;;;6.53;4.43;;;15.80;99.90;;;;;;4928643;29;20495;-58
2022/05/24 09:52:11;;;;;;;4.88;3.60;;;16.00;99.90;;;;;;4942345;29;20596;-58
2022/05/24 09:54:56;;;;;;;6.47;3.80;;;16.10;99.90;;;;;;4940877;28;20074;-57
2022/05/24 09:57:32;;;;;;;5.55;3.33;;;16.40;99.90;;;;;;4939107;28;20050;-56
2022/05/24 10:00:20;;;;;;;7.78;4.03;;;16.50;99.90;;;;;;4934449;29;20126;-57
2022/05/24 10:02:53;;;;;;;6.53;3.42;;;16.50;99.90;;;;;;4916666;29;20141;-55
2022/05/24 10:05:20;;;;;;;6.22;3.25;;;16.30;99.90;;;;;;4948474;28;20067;-57
2022/05/24 10:08:13;;;;;;;7.22;3.35;;;15.90;99.90;;;;;;4930308;29;20039;-57
2022/05/24 10:10:44;;;;;;;5.53;2.75;;;15.70;99.90;;;;;;4941018;28;20116;-56
2022/05/24 10:13:19;;;;;;;3.35;2.10;;;15.60;99.90;;;;;;4919370;29;20058;-57
2022/05/24 10:16:04;;;;;;;6.45;2.38;;;15.40;99.90;;;;;;4935189;29;20330;-56
2022/05/24 10:18:33;;;;;;;4.80;2.63;;;15.50;99.90;;;;;;4950193;28;20051;-57
2022/05/24 10:21:14;;;;;;;7.78;3.17;;;15.60;99.90;;;;;;4973642;23;20107;-60
2022/05/24 10:24:23;;;;;;;5.10;3.50;;;15.70;99.90;;;;;;4969103;28;20051;-59
2022/05/24 10:26:57;;;;;;;6.15;3.28;;;15.70;99.90;;;;;;4958744;28;20458;-59
2022/05/24 10:29:41;;;;;;;5.22;3.53;;;15.80;99.90;;;;;;4937041;28;20126;-59
2022/05/24 10:38:20;;;;;;;6.45;3.05;;;15.40;99.90;;;;;;4961863;28;20177;-61
2022/05/24 10:41:16;;;;;;;4.45;3.00;;;15.30;99.90;;;;;;4957407;28;20069;-61
2022/05/24 10:44:05;;;;;;;5.68;3.17;;;15.10;99.90;;;;;;4966187;28;20603;-63
2022/05/24 10:46:45;;;;;;;4.70;3.88;;;15.00;99.90;;;;;;4980885;28;20471;-56
2022/05/24 10:49:21;;;;;;;5.22;2.40;;;14.80;99.90;;;;;;4961275;28;20045;-61
2022/05/24 10:52:23;;;;;;;2.45;1.80;;;14.40;99.90;;;;;;4966886;28;20056;-61
2022/05/24 10:54:58;;;;;;;1.88;0.98;;;14.00;99.90;;;;;;4925202;28;20129;-61
2022/05/24 10:57:33;;;;;;;3.22;0.85;;;14.00;99.90;;;;;;4956812;28;20046;-60
2022/05/24 11:00:03;;;;;;;4.40;1.20;;;14.10;99.90;;;;;;4958227;28;20034;-56
2022/05/24 11:02:35;;;;;;;4.15;1.67;;;14.40;99.90;;;;;;4967170;28;20077;-59
2022/05/24 11:05:25;;;;;;;2.97;1.33;;;14.50;99.90;;;;;;4965104;28;20047;-62
2022/05/24 11:08:18;;;;;;;4.80;1.50;;;14.60;99.90;;;;;;4979487;28;20054;-60
2022/05/24 11:10:46;;;;;;;3.25;1.30;;;15.00;99.90;;;;;;4939846;28;20071;-63
2022/05/24 11:13:18;;;;;;;2.88;1.25;;;15.30;99.90;;;;;;4982694;28;20045;-59
2022/05/24 11:15:50;;;;;;;4.22;1.60;;;15.20;99.90;;;;;;4941700;28;20039;-55
2022/05/24 11:18:19;;;;;;;1.80;1.60;;;15.50;99.90;;;;;;4977239;28;20057;-60
2022/05/24 11:21:13;;;;;;;2.85;1.80;;;15.30;99.90;;;;;;4979461;28;20058;-58
2022/05/24 11:23:48;;;;;;;3.78;1.20;;;15.20;99.90;;;;;;4962569;28;20038;-61
2022/05/24 11:26:24;;;;;;;4.53;1.70;;;15.00;99.90;;;;;;4965763;28;20549;-58
2022/05/24 11:29:24;;;;;;;3.30;1.50;;;14.70;99.90;;;;;;4948460;28;20050;-56
2022/05/24 11:31:57;;;;;;;8.55;2.13;;;14.70;99.90;;;;;;4975547;28;20091;-54
2022/05/24 11:34:39;;;;;;;6.35;1.80;;;14.80;99.90;;;;;;4957619;28;20121;-61
2022/05/24 11:37:11;;;;;;;7.43;2.45;;;15.00;99.90;;;;;;4964591;28;20039;-58
2022/05/24 11:39:40;;;;;;;5.38;1.85;;;14.90;99.90;;;;;;4952106;28;20106;-58
2022/05/24 11:42:25;;;;;;;6.28;1.88;;;15.00;99.90;;;;;;4966489;28;20431;-61
2022/05/24 11:44:53;;;;;;;3.92;1.67;;;15.10;99.90;;;;;;4958385;28;20497;-57
2022/05/24 11:47:34;;;;;;;5.28;1.30;;;14.90;99.90;;;;;;4943965;28;20053;-57
2022/05/24 11:50:08;;;;;;;5.05;1.40;;;15.50;99.90;;;;;;4964059;28;20050;-60
2022/05/24 11:52:44;;;;;;;3.20;1.13;;;15.30;99.90;;;;;;4977992;28;20038;-58
2022/05/24 11:55:30;;;;;;;4.78;1.40;;;15.50;99.90;;;;;;4948898;28;20834;-58
2022/05/24 11:58:06;;;;;;;5.95;1.38;;;15.60;99.90;;;;;;4984202;28;20061;-58
2022/05/24 12:00:33;;;;;;;8.82;1.85;;;15.40;99.90;;;;;;4957539;28;20081;-57
2022/05/24 12:08:34;;;;;;;9.07;2.00;;;14.90;99.90;;;;;;4955864;28;20004;-60
2022/05/24 12:11:06;;;;;;;6.78;1.83;;;15.30;99.90;;;;;;4964166;28;20056;-58
2022/05/24 12:14:11;;;;;;;8.60;2.22;;;15.60;99.90;;;;;;4955459;28;20089;-56
2022/05/24 12:17:05;;;;;;;5.15;2.08;;;15.40;99.90;;;;;;4940744;28;20043;-58
2022/05/24 12:19:40;;;;;;;6.20;1.63;;;15.30;99.90;;;;;;4963740;28;20058;-58
2022/05/24 12:22:27;;;;;;;3.25;1.13;;;15.40;99.90;;;;;;4961990;28;20057;-58
2022/05/24 12:24:58;;;;;;;4.57;1.02;;;15.70;99.90;;;;;;4971538;28;20034;-58
2022/05/24 12:27:44;;;;;;;2.70;1.35;;;16.10;99.90;;;;;;4941927;28;20492;-60
2022/05/24 12:30:18;;;;;;;3.83;1.20;;;16.30;99.90;;;;;;4945701;28;20043;-59
2022/05/24 12:32:44;;;;;;;3.17;1.05;;;16.40;99.90;;;;;;4932426;28;20371;-58
2022/05/24 12:35:13;;;;;;;3.13;1.00;;;16.70;99.90;;;;;;4953842;28;20468;-61
2022/05/24 12:37:46;;;;;;;1.90;0.70;;;16.70;99.90;;;;;;4972149;28;20577;-58
2022/05/24 12:40:22;;;;;;;2.33;0.80;;;17.20;99.90;;;;;;4934572;28;20651;-58
2022/05/24 12:42:54;;;;;;;2.80;0.85;;;17.60;99.90;;;;;;4959293;28;20229;-58
2022/05/24 12:45:43;;;;;;;2.28;0.75;;;17.80;99.90;;;;;;4941496;28;20057;-61
2022/05/24 12:48:18;;;;;;;1.88;0.90;;;18.00;98.30;;;;;;4969829;28;20116;-57
2022/05/24 12:50:44;;;;;;;4.70;1.40;;;17.80;99.40;;;;;;4960745;28;20046;-58
2022/05/24 12:53:13;;;;;;;3.53;1.27;;;18.10;99.90;;;;;;4960019;28;20501;-58
2022/05/24 12:55:56;;;;;;;2.55;1.73;;;18.30;99.80;;;;;;4959891;28;20051;-55
2022/05/24 12:58:40;;;;;;;2.38;1.08;;;18.40;99.60;;;;;;4947703;28;20042;-58
2022/05/24 13:01:14;;;;;;;3.70;1.55;;;18.20;98.90;;;;;;4944878;28;20678;-60
2022/05/24 13:03:56;;;;;;;3.70;1.63;;;17.90;99.30;;;;;;4949032;28;20061;-57
2022/05/24 13:06:34;;;;;;;6.70;2.33;;;17.30;99.50;;;;;;4930921;28;20156;-58
2022/05/24 13:09:28;;;;;;;6.13;1.77;;;16.70;99.90;;;;;;4941446;28;20042;-60
2022/05/24 13:12:07;;;;;;;3.40;1.80;;;17.10;99.90;;;;;;4963422;28;20493;-58
2022/05/24 13:14:42;;;;;;;4.75;1.50;;;17.50;99.90;;;;;;4940612;28;20038;-58
2022/05/24 13:17:09;;;;;;;6.07;1.92;;;17.50;99.90;;;;;;4967067;28;20046;-57
2022/05/24 13:19:46;;;;;;;6.72;1.70;;;17.20;99.30;;;;;;4968289;28;20121;-56
2022/05/24 13:22:13;;;;;;;4.93;2.10;;;17.20;99.90;;;;;;4956400;28;20699;-58
2022/05/24 13:24:55;;;;;;;5.35;2.22;;;17.20;99.70;;;;;;4960050;28;20513;-58
2022/05/24 13:27:21;;;;;;;3.80;2.15;;;17.90;99.90;;;;;;4957684;28;20049;-58
2022/05/24 13:35:31;;;;;;;3.60;1.75;;;17.20;99.20;;;;;;4981524;28;20406;-59
2022/05/24 13:37:58;;;;;;;6.47;2.30;;;17.00;99.80;;;;;;4970059;28;20050;-57
2022/05/24 13:40:50;;;;;;;5.32;2.33;;;17.00;99.90;;;;;;4964463;28;20061;-58
2022/05/24 13:43:32;;;;;;;5.38;1.70;;;17.10;99.90;;;;;;4966164;28;20054;-58
2022/05/24 13:46:21;;;;;;;4.50;1.80;;;16.80;99.60;;;;;;4924404;28;20432;-59
2022/05/24 13:48:56;;;;;;;5.93;2.25;;;16.70;99.20;;;;;;4961192;28;20046;-59
2022/05/24 13:51:31;;;;;;;5.22;2.33;;;16.40;99.80;;;;;;4949498;28;21881;-59